map of LFOC home
Great Circle Mapper logo
LFOC - Airport
Location
City:  Châteaudun, Centre, France
ICAO:LFOC

Details
Type:Airport (Aerodrome, Airfield)
Use:Public/Civil
Latitude:48°03'28"N (48.057875)
Longitude:1°22'46"E (1.379442)
Elevation:433 ft (132 m)
Variation:0.14°E (WMM2015 magnetic declination)
0.13° annual change
Runways:1
Longest:7552 × 148 ft (2302 × 45 m)

Time
Time Zone:UTC+1 (DST+2)
Local Time:

Weather
METAR:LFOC 010300Z AUTO VRB10KT 5000 BR OVC004 13/12 Q1015
TAF:LFOC 311631Z 3116/0112 CNL= TAF MMCZ 311631Z 3118/0124 12012KT P6SM SCT015 SCT100 BKN250
FM312000 12015KT P6SM SCT015CB BKN250
TEMPO 3120/3124 VC SH BKN015CB
FM010200 12006KT P6SM SCT015
FM011200 12008KT 6SM HZ BKN015
FM011800 12012KT P6SM SCT015 SCT250
BECMG 0120/0121 12015KT

Related Locations
Nearby:
Farthest:CHT: 12120 mi / 19505 km
Waitangi [Tuuta], Chatham Islands, NZ

Find:

   beyond  
but within

Other Information
Maps:
NOTAMs:
Links:
Sources:

  
flag of France
flag of Centre
  

Sectional Chart

Flight Planning
at skyvector.com

Satellite Image

Google Maps Satellite view

 

Copyright © 2004-2016 Karl L. Swartz. All rights reserved.
The Great Circle Mapper name and logo are trademarks of the Great Circle Mapper.
All other trademarks mentioned herein belong to their respective owners.
Please see credits for attibutions and further copyright information.

  Follow gcmap on Facebook Follow gcmap on Twitter Follow gcmap on Google+ GCmap on LinkedIn

hCard Microformat

Geo Microformat